createdAt,value
2019-05-30T00:00:17.033Z,29.80
2019-05-30T00:02:39.553Z,29.70
2019-05-30T00:05:06.762Z,29.70
2019-05-30T00:07:36.942Z,29.60
2019-05-30T00:10:06.171Z,29.60
2019-05-30T00:12:34.390Z,29.60
2019-05-30T00:15:04.518Z,29.60
2019-05-30T00:17:31.982Z,29.60
2019-05-30T00:20:01.084Z,29.50
2019-05-30T00:22:27.848Z,29.50
2019-05-30T00:24:55.944Z,29.40
2019-05-30T00:27:22.616Z,29.40
2019-05-30T00:29:50.516Z,29.40
2019-05-30T00:32:17.643Z,29.40
2019-05-30T00:34:44.302Z,29.30
2019-05-30T00:37:11.052Z,29.20
2019-05-30T00:39:38.169Z,29.20
2019-05-30T00:42:06.100Z,29.20
2019-05-30T00:44:32.789Z,29.20
2019-05-30T00:47:00.607Z,29.10
2019-05-30T00:49:28.517Z,29.10
2019-05-30T00:51:56.354Z,29.10
2019-05-30T00:54:23.549Z,29.00
2019-05-30T00:56:50.247Z,29.00
2019-05-30T00:59:16.874Z,28.90
2019-05-30T01:01:43.881Z,28.90
2019-05-30T01:04:10.317Z,28.90
2019-05-30T01:06:36.833Z,29.00
2019-05-30T01:09:05.332Z,28.90
2019-05-30T01:11:32.477Z,28.90
2019-05-30T01:13:59.151Z,28.90
2019-05-30T01:16:26.173Z,28.90
2019-05-30T01:18:53.535Z,28.90
2019-05-30T01:21:20.164Z,28.90
2019-05-30T01:23:46.876Z,28.90
2019-05-30T01:26:13.313Z,28.90
2019-05-30T01:28:40.365Z,28.90
2019-05-30T01:31:10.203Z,28.80
2019-05-30T01:33:35.370Z,28.80
2019-05-30T01:36:01.788Z,28.80
2019-05-30T01:38:28.563Z,28.80
2019-05-30T01:40:55.133Z,28.80
2019-05-30T01:43:22.857Z,28.80
2019-05-30T01:45:49.715Z,28.80
2019-05-30T01:48:16.144Z,28.80
2019-05-30T01:50:42.686Z,28.80
2019-05-30T01:53:09.743Z,28.70
2019-05-30T01:55:36.690Z,28.70
2019-05-30T01:58:04.691Z,28.60
2019-05-30T02:00:39.572Z,28.60
2019-05-30T02:03:07.171Z,28.60
2019-05-30T02:05:33.680Z,28.60
2019-05-30T02:08:01.019Z,28.50
2019-05-30T02:10:27.569Z,28.50
2019-05-30T02:12:53.994Z,28.50
2019-05-30T02:15:20.838Z,28.40
2019-05-30T02:17:47.340Z,28.40
2019-05-30T02:20:14.196Z,28.40
2019-05-30T02:22:41.163Z,28.40
2019-05-30T02:25:08.296Z,28.40
2019-05-30T02:27:35.308Z,28.40
2019-05-30T02:30:06.650Z,28.30
2019-05-30T02:32:32.803Z,28.40
2019-05-30T02:35:00.785Z,28.30
2019-05-30T02:37:27.857Z,28.30
2019-05-30T02:39:54.218Z,28.30
2019-05-30T02:42:20.897Z,28.20
2019-05-30T02:44:47.934Z,28.20
2019-05-30T02:47:14.652Z,28.20
2019-05-30T02:49:41.238Z,28.20
2019-05-30T02:52:08.667Z,28.20
2019-05-30T02:54:35.929Z,28.20
2019-05-30T02:57:03.594Z,28.20
2019-05-30T02:59:30.614Z,28.20
2019-05-30T03:02:02.017Z,28.20
2019-05-30T03:04:25.408Z,28.30
2019-05-30T03:06:52.341Z,28.30
2019-05-30T03:09:19.138Z,28.30
2019-05-30T03:11:45.883Z,28.40
2019-05-30T03:14:19.234Z,28.40
2019-05-30T03:16:42.368Z,28.40
2019-05-30T03:19:11.046Z,28.50
2019-05-30T03:21:38.865Z,28.50
2019-05-30T03:24:07.608Z,28.40
2019-05-30T03:26:34.963Z,28.40
2019-05-30T03:29:02.721Z,28.40
2019-05-30T03:31:32.819Z,28.40
2019-05-30T03:33:59.439Z,28.40
2019-05-30T03:36:30.687Z,28.50
2019-05-30T03:38:54.747Z,28.50
2019-05-30T03:41:21.670Z,28.50
2019-05-30T03:43:48.840Z,28.50
2019-05-30T03:46:21.735Z,28.50
2019-05-30T03:48:55.152Z,28.50
2019-05-30T03:51:23.414Z,28.40
2019-05-30T03:53:50.566Z,28.40
2019-05-30T03:56:27.134Z,28.40
2019-05-30T03:59:08.101Z,28.50
2019-05-30T04:01:44.887Z,28.50
2019-05-30T04:04:27.381Z,28.60
2019-05-30T04:07:03.976Z,28.60
2019-05-30T04:09:33.370Z,28.70
2019-05-30T04:12:10.604Z,28.70
2019-05-30T04:14:41.186Z,28.80
2019-05-30T04:17:08.400Z,28.80
2019-05-30T04:19:36.335Z,28.80
2019-05-30T04:22:03.343Z,28.80
2019-05-30T04:24:29.943Z,28.80
2019-05-30T04:26:58.415Z,28.90
2019-05-30T04:29:24.892Z,28.90
2019-05-30T04:31:51.728Z,28.90
2019-05-30T04:34:19.558Z,29.00
2019-05-30T04:36:46.281Z,29.00
2019-05-30T04:39:15.108Z,29.00
2019-05-30T04:41:42.113Z,29.00
2019-05-30T04:44:09.796Z,29.00
2019-05-30T04:46:37.076Z,29.10
2019-05-30T04:49:04.065Z,29.10
2019-05-30T04:51:31.749Z,29.20
2019-05-30T04:53:58.491Z,29.20
2019-05-30T04:56:25.321Z,29.20
2019-05-30T04:58:53.074Z,29.30
2019-05-30T05:01:20.630Z,29.30
2019-05-30T05:03:51.401Z,29.30
2019-05-30T05:06:18.047Z,29.40
2019-05-30T05:08:45.474Z,29.40
2019-05-30T05:11:14.151Z,29.50
2019-05-30T05:13:40.476Z,29.50
2019-05-30T05:16:21.859Z,29.60
2019-05-30T05:18:35.812Z,29.70
2019-05-30T05:21:02.398Z,29.80
2019-05-30T05:23:28.970Z,29.90
2019-05-30T05:26:00.950Z,30.00
2019-05-30T05:28:24.621Z,30.00
2019-05-30T05:30:52.060Z,30.10
2019-05-30T05:33:18.677Z,30.10
2019-05-30T05:35:45.328Z,30.00
2019-05-30T05:38:11.975Z,30.00
2019-05-30T05:40:38.920Z,29.90
2019-05-30T05:43:05.652Z,29.90
2019-05-30T05:45:32.529Z,29.90
2019-05-30T05:47:59.888Z,29.90
2019-05-30T05:50:26.577Z,30.00
2019-05-30T05:52:53.651Z,30.10
2019-05-30T05:55:20.918Z,30.10
2019-05-30T05:57:47.496Z,30.10
2019-05-30T06:00:14.938Z,30.10
2019-05-30T06:02:41.987Z,30.10
2019-05-30T06:05:09.512Z,30.20
2019-05-30T06:07:36.187Z,30.30
2019-05-30T06:10:04.554Z,30.40
2019-05-30T06:12:31.141Z,30.40
2019-05-30T06:14:57.961Z,30.40
2019-05-30T06:17:25.105Z,30.50
2019-05-30T06:19:51.651Z,30.60
2019-05-30T06:22:19.283Z,30.70
2019-05-30T06:24:46.205Z,30.80
2019-05-30T06:27:12.665Z,30.90
2019-05-30T06:29:39.113Z,31.00
2019-05-30T06:32:05.846Z,31.10
2019-05-30T06:34:39.377Z,31.10
2019-05-30T06:37:00.881Z,31.20
2019-05-30T06:39:27.837Z,31.20
2019-05-30T06:41:54.357Z,31.30
2019-05-30T06:44:21.788Z,31.40
2019-05-30T06:46:48.542Z,31.50
2019-05-30T06:49:15.484Z,31.70
2019-05-30T06:51:42.156Z,31.80
2019-05-30T06:54:08.873Z,31.90
2019-05-30T06:56:35.675Z,32.00
2019-05-30T06:59:03.796Z,32.00
2019-05-30T07:01:30.647Z,32.20
2019-05-30T07:03:57.625Z,32.40
2019-05-30T07:06:25.395Z,32.50
2019-05-30T07:08:52.799Z,32.60
2019-05-30T07:11:19.931Z,32.70
2019-05-30T07:13:46.529Z,32.80
2019-05-30T07:16:13.430Z,32.90
2019-05-30T07:18:40.252Z,33.10
2019-05-30T07:21:07.109Z,33.30
2019-05-30T07:23:34.413Z,33.50
2019-05-30T07:26:03.499Z,33.70
2019-05-30T07:28:30.492Z,33.80
2019-05-30T07:30:57.338Z,33.90
2019-05-30T07:33:24.032Z,34.00
2019-05-30T07:35:50.815Z,34.10
2019-05-30T07:38:17.907Z,34.20
2019-05-30T07:40:44.598Z,34.40
2019-05-30T07:43:11.571Z,34.40
2019-05-30T07:45:38.556Z,34.40
2019-05-30T07:48:05.642Z,34.50
2019-05-30T07:50:32.608Z,34.50
2019-05-30T07:52:59.572Z,34.50
2019-05-30T07:55:40.727Z,34.50
2019-05-30T07:58:07.510Z,34.50
2019-05-30T08:00:35.493Z,34.60
2019-05-30T08:03:02.494Z,34.70
2019-05-30T08:05:30.623Z,34.70
2019-05-30T08:07:57.312Z,34.60
2019-05-30T08:10:23.953Z,34.40
2019-05-30T08:12:50.600Z,34.30
2019-05-30T08:15:17.499Z,34.30
2019-05-30T08:17:44.632Z,34.30
2019-05-30T08:20:12.445Z,34.40
2019-05-30T08:22:39.274Z,34.50
2019-05-30T08:25:06.475Z,34.70
2019-05-30T08:27:34.333Z,34.90
2019-05-30T08:30:01.230Z,35.00
2019-05-30T08:32:28.348Z,35.10
2019-05-30T08:34:55.350Z,35.20
2019-05-30T08:37:22.091Z,35.40
2019-05-30T08:39:48.732Z,35.60
2019-05-30T08:42:15.589Z,35.80
2019-05-30T08:44:42.291Z,36.00
2019-05-30T08:47:09.099Z,36.10
2019-05-30T08:49:36.221Z,36.20
2019-05-30T08:52:03.157Z,36.30
2019-05-30T08:54:30.273Z,36.30
2019-05-30T08:56:57.321Z,36.30
2019-05-30T08:59:23.874Z,36.30
2019-05-30T09:01:53.033Z,36.40
2019-05-30T09:04:19.363Z,36.50
2019-05-30T09:06:46.188Z,36.70
2019-05-30T09:09:12.950Z,37.00
2019-05-30T09:11:40.590Z,37.20
2019-05-30T09:14:07.331Z,37.50
2019-05-30T09:16:34.029Z,37.70
2019-05-30T09:19:00.919Z,37.70
2019-05-30T09:21:27.507Z,37.50
2019-05-30T09:23:57.742Z,37.30
2019-05-30T09:26:23.810Z,37.10
2019-05-30T09:28:50.444Z,37.20
2019-05-30T09:31:17.234Z,37.30
2019-05-30T09:33:44.682Z,37.40
2019-05-30T09:36:13.556Z,37.60
2019-05-30T09:38:40.595Z,37.70
2019-05-30T09:41:08.667Z,37.60
2019-05-30T09:43:35.356Z,37.50
2019-05-30T09:46:02.125Z,37.40
2019-05-30T09:48:29.673Z,37.40
2019-05-30T09:50:56.279Z,37.50
2019-05-30T09:53:22.810Z,37.70
2019-05-30T09:55:51.479Z,38.00
2019-05-30T09:58:18.228Z,38.10
2019-05-30T10:00:46.619Z,38.30
2019-05-30T10:03:13.834Z,38.20
2019-05-30T10:05:40.698Z,38.20
2019-05-30T10:08:07.498Z,37.90
2019-05-30T10:10:34.475Z,37.50
2019-05-30T10:13:01.223Z,37.40
2019-05-30T10:15:28.007Z,37.40
2019-05-30T10:17:55.104Z,37.50
2019-05-30T10:20:21.969Z,37.70
2019-05-30T10:22:50.493Z,37.90
2019-05-30T10:25:17.438Z,38.20
2019-05-30T10:27:46.192Z,38.20
2019-05-30T10:30:13.897Z,38.20
2019-05-30T10:32:40.777Z,38.20
2019-05-30T10:35:07.624Z,38.20
2019-05-30T10:37:34.309Z,38.30
2019-05-30T10:40:01.194Z,38.40
2019-05-30T10:42:27.790Z,38.40
2019-05-30T10:44:54.656Z,38.50
2019-05-30T10:47:21.521Z,38.60
2019-05-30T10:49:49.638Z,38.50
2019-05-30T10:52:16.200Z,38.40
2019-05-30T10:54:43.081Z,38.20
2019-05-30T10:57:09.754Z,38.10
2019-05-30T10:59:36.402Z,37.90
2019-05-30T11:02:03.731Z,37.80
2019-05-30T11:04:30.531Z,37.70
2019-05-30T11:07:19.224Z,37.70
2019-05-30T11:09:57.290Z,37.70
2019-05-30T11:12:24.705Z,37.70
2019-05-30T11:14:51.567Z,37.80
2019-05-30T11:17:18.447Z,37.80
2019-05-30T11:19:45.386Z,37.70
2019-05-30T11:22:11.886Z,37.70
2019-05-30T11:24:38.565Z,37.70
2019-05-30T11:27:05.432Z,37.60
2019-05-30T11:29:31.987Z,37.40
2019-05-30T11:31:59.127Z,37.30
2019-05-30T11:34:26.082Z,37.20
2019-05-30T11:36:53.081Z,37.10
2019-05-30T11:39:19.933Z,37.00
2019-05-30T11:41:46.880Z,37.00
2019-05-30T11:44:13.627Z,37.00
2019-05-30T11:46:40.128Z,37.00
2019-05-30T11:49:07.026Z,37.10
2019-05-30T11:51:33.688Z,37.10
2019-05-30T11:54:01.169Z,37.10
2019-05-30T11:56:28.091Z,37.00
2019-05-30T11:58:56.041Z,37.00
2019-05-30T12:01:22.661Z,37.10
2019-05-30T12:03:50.528Z,37.20
2019-05-30T12:06:17.357Z,37.30
2019-05-30T12:08:44.015Z,37.30
2019-05-30T12:11:10.863Z,37.40
2019-05-30T12:13:37.551Z,37.50
2019-05-30T12:16:04.200Z,37.60
2019-05-30T12:18:37.279Z,37.70
2019-05-30T12:21:04.018Z,37.70
2019-05-30T12:23:31.100Z,37.70
2019-05-30T12:25:58.083Z,37.70
2019-05-30T12:28:25.337Z,37.60
2019-05-30T12:30:56.797Z,37.60
2019-05-30T12:33:21.248Z,37.70
2019-05-30T12:35:47.925Z,37.70
2019-05-30T12:38:14.677Z,37.70
2019-05-30T12:40:41.679Z,37.70
2019-05-30T12:43:08.858Z,37.70
2019-05-30T12:45:35.607Z,37.70
2019-05-30T12:48:04.321Z,37.70
2019-05-30T12:50:31.083Z,37.70
2019-05-30T12:52:57.930Z,37.80
2019-05-30T12:55:25.135Z,37.80
2019-05-30T12:57:52.162Z,37.80
2019-05-30T13:00:28.823Z,37.70
2019-05-30T13:02:56.530Z,37.70
2019-05-30T13:05:24.098Z,37.60
2019-05-30T13:07:52.137Z,37.50
2019-05-30T13:10:19.685Z,37.40
2019-05-30T13:12:46.446Z,37.30
2019-05-30T13:15:13.714Z,37.20
2019-05-30T13:17:40.740Z,37.20
2019-05-30T13:20:09.566Z,37.20
2019-05-30T13:22:36.967Z,37.30
2019-05-30T13:25:08.380Z,37.30
2019-05-30T13:27:35.731Z,37.20
2019-05-30T13:30:04.692Z,37.30
2019-05-30T13:32:31.629Z,37.30
2019-05-30T13:34:59.207Z,37.30
2019-05-30T13:37:27.070Z,37.30
2019-05-30T13:39:53.530Z,37.30
2019-05-30T13:42:20.188Z,37.40
2019-05-30T13:44:46.905Z,37.30
2019-05-30T13:47:13.723Z,37.30
2019-05-30T13:49:40.771Z,37.20
2019-05-30T13:52:09.048Z,37.10
2019-05-30T13:54:37.019Z,37.00
2019-05-30T13:57:05.761Z,36.90
2019-05-30T13:59:34.999Z,36.90
2019-05-30T14:02:03.880Z,36.80
2019-05-30T14:04:31.045Z,36.70
2019-05-30T14:07:00.059Z,36.60
2019-05-30T14:09:27.584Z,36.50
2019-05-30T14:11:54.233Z,36.40
2019-05-30T14:14:21.520Z,36.40
2019-05-30T14:16:48.440Z,36.30
2019-05-30T14:19:15.282Z,36.20
2019-05-30T14:21:43.800Z,36.10
2019-05-30T14:24:11.584Z,36.10
2019-05-30T14:26:38.676Z,36.00
2019-05-30T14:29:05.785Z,35.90
2019-05-30T14:31:32.466Z,35.90
2019-05-30T14:33:59.358Z,35.80
2019-05-30T14:36:26.565Z,35.80
2019-05-30T14:38:58.516Z,35.70
2019-05-30T14:41:21.705Z,35.60
2019-05-30T14:43:48.833Z,35.60
2019-05-30T14:46:16.665Z,35.60
2019-05-30T14:48:51.505Z,35.50
2019-05-30T14:51:20.180Z,35.50
2019-05-30T14:53:46.950Z,35.50
2019-05-30T14:56:14.561Z,35.50
2019-05-30T14:58:41.664Z,35.50
2019-05-30T15:01:09.370Z,35.60
2019-05-30T15:03:36.538Z,35.50
2019-05-30T15:06:06.862Z,35.60
2019-05-30T15:08:33.099Z,35.70
2019-05-30T15:11:00.114Z,35.70
2019-05-30T15:13:26.937Z,35.60
2019-05-30T15:15:56.901Z,35.60
2019-05-30T15:18:23.495Z,35.60
2019-05-30T15:20:50.256Z,35.60
2019-05-30T15:23:20.642Z,35.70
2019-05-30T15:25:48.551Z,35.60
2019-05-30T15:28:16.197Z,35.60
2019-05-30T15:30:43.224Z,35.60
2019-05-30T15:33:10.459Z,35.70
2019-05-30T15:35:37.942Z,35.70
2019-05-30T15:38:04.993Z,35.70
2019-05-30T15:40:33.520Z,35.70
2019-05-30T15:43:00.303Z,35.80
2019-05-30T15:45:27.269Z,35.80
2019-05-30T15:47:54.527Z,35.70
2019-05-30T15:50:21.281Z,35.70
2019-05-30T15:52:48.316Z,35.70
2019-05-30T15:55:17.548Z,35.60
2019-05-30T15:57:44.555Z,35.60
2019-05-30T16:00:14.044Z,35.50
2019-05-30T16:02:41.841Z,35.50
2019-05-30T16:05:12.479Z,35.50
2019-05-30T16:07:40.148Z,35.50
2019-05-30T16:10:10.891Z,35.50
2019-05-30T16:12:40.916Z,35.50
2019-05-30T16:15:17.481Z,35.40
2019-05-30T16:17:55.027Z,35.40
2019-05-30T16:20:22.618Z,35.40
2019-05-30T16:22:49.975Z,35.40
2019-05-30T16:25:17.755Z,35.40
2019-05-30T16:27:45.118Z,35.40
2019-05-30T16:30:17.044Z,35.30
2019-05-30T16:32:41.685Z,35.30
2019-05-30T16:35:09.716Z,35.30
2019-05-30T16:37:36.959Z,35.20
2019-05-30T16:40:08.133Z,35.10
2019-05-30T16:42:35.765Z,35.00
2019-05-30T16:45:05.283Z,34.90
2019-05-30T16:47:34.111Z,34.70
2019-05-30T16:50:01.184Z,34.60
2019-05-30T16:52:28.463Z,34.40
2019-05-30T16:54:56.854Z,34.40
2019-05-30T16:57:24.715Z,34.30
2019-05-30T16:59:52.049Z,34.30
2019-05-30T17:02:20.732Z,34.20
2019-05-30T17:04:48.292Z,34.20
2019-05-30T17:07:15.469Z,34.20
2019-05-30T17:09:42.734Z,34.10
2019-05-30T17:12:09.880Z,34.00
2019-05-30T17:14:37.242Z,33.90
2019-05-30T17:17:04.489Z,33.80
2019-05-30T17:19:31.809Z,33.70
2019-05-30T17:21:59.304Z,33.70
2019-05-30T17:24:27.252Z,33.60
2019-05-30T17:26:55.263Z,33.50
2019-05-30T17:29:23.478Z,33.40
2019-05-30T17:31:50.914Z,33.30
2019-05-30T17:34:19.824Z,33.20
2019-05-30T17:36:47.481Z,33.20
2019-05-30T17:39:14.698Z,33.20
2019-05-30T17:41:41.952Z,33.10
2019-05-30T17:44:09.216Z,33.10
2019-05-30T17:46:36.921Z,33.10
2019-05-30T17:49:04.443Z,33.10
2019-05-30T17:51:31.688Z,33.00
2019-05-30T17:53:58.924Z,33.00
2019-05-30T17:56:26.500Z,33.00
2019-05-30T17:58:53.878Z,32.90
2019-05-30T18:01:22.170Z,32.80
2019-05-30T18:03:50.283Z,32.80
2019-05-30T18:06:17.333Z,32.70
2019-05-30T18:08:44.486Z,32.70
2019-05-30T18:11:12.386Z,32.70
2019-05-30T18:13:39.642Z,32.80
2019-05-30T18:16:06.696Z,32.90
2019-05-30T18:18:34.324Z,32.90
2019-05-30T18:21:01.501Z,33.00
2019-05-30T18:23:29.693Z,32.90
2019-05-30T18:25:57.102Z,32.90
2019-05-30T18:28:24.057Z,32.90
2019-05-30T18:30:51.505Z,32.80
2019-05-30T18:33:19.182Z,32.80
2019-05-30T18:35:46.320Z,32.70
2019-05-30T18:38:13.814Z,32.70
2019-05-30T18:40:41.443Z,32.60
2019-05-30T18:43:09.640Z,32.70
2019-05-30T18:45:39.081Z,32.70
2019-05-30T18:48:07.605Z,32.70
2019-05-30T18:50:35.708Z,32.70
2019-05-30T18:53:03.488Z,32.70
2019-05-30T18:55:31.137Z,32.70
2019-05-30T18:57:58.257Z,32.60
2019-05-30T19:00:26.970Z,32.70
2019-05-30T19:02:54.525Z,32.60
2019-05-30T19:05:21.859Z,32.60
2019-05-30T19:07:49.221Z,32.60
2019-05-30T19:10:16.811Z,32.60
2019-05-30T19:12:44.246Z,32.60
2019-05-30T19:15:11.372Z,32.60
2019-05-30T19:17:38.853Z,32.50
2019-05-30T19:20:06.753Z,32.50
2019-05-30T19:22:34.893Z,32.50
2019-05-30T19:25:05.383Z,32.50
2019-05-30T19:27:35.385Z,32.40
2019-05-30T19:30:01.990Z,32.40
2019-05-30T19:32:30.656Z,32.40
2019-05-30T19:34:58.318Z,32.40
2019-05-30T19:37:26.914Z,32.40
2019-05-30T19:39:54.880Z,32.40
2019-05-30T19:42:22.339Z,32.40
2019-05-30T19:44:50.238Z,32.40
2019-05-30T19:47:18.078Z,32.40
2019-05-30T19:49:45.535Z,32.40
2019-05-30T19:52:12.884Z,32.40
2019-05-30T19:54:40.049Z,32.40
2019-05-30T19:57:07.396Z,32.40
2019-05-30T19:59:36.169Z,32.50
2019-05-30T20:02:03.952Z,32.60
2019-05-30T20:04:32.148Z,32.60
2019-05-30T20:06:59.355Z,32.60
2019-05-30T20:09:27.160Z,32.60
2019-05-30T20:12:03.094Z,32.70
2019-05-30T20:14:23.289Z,32.70
2019-05-30T20:16:50.545Z,32.70
2019-05-30T20:19:17.487Z,32.70
2019-05-30T20:21:44.556Z,32.70
2019-05-30T20:24:11.893Z,32.70
2019-05-30T20:26:38.656Z,32.70
2019-05-30T20:29:06.004Z,32.60
2019-05-30T20:31:33.435Z,32.60
2019-05-30T20:34:00.286Z,32.60
2019-05-30T20:36:27.252Z,32.60
2019-05-30T20:38:54.861Z,32.50
2019-05-30T20:41:21.685Z,32.50
2019-05-30T20:43:48.809Z,32.40
2019-05-30T20:46:23.252Z,32.30
2019-05-30T20:48:45.166Z,32.30
2019-05-30T20:51:20.697Z,32.20
2019-05-30T20:53:42.020Z,32.10
2019-05-30T20:56:08.807Z,32.00
2019-05-30T20:58:35.902Z,31.90
2019-05-30T21:01:02.981Z,31.90
2019-05-30T21:03:29.868Z,31.80
2019-05-30T21:05:56.963Z,31.80
2019-05-30T21:08:24.094Z,31.70
2019-05-30T21:10:52.948Z,31.70
2019-05-30T21:13:20.547Z,31.60
2019-05-30T21:15:48.917Z,31.60
2019-05-30T21:18:17.201Z,31.60
2019-05-30T21:20:44.380Z,31.60
2019-05-30T21:23:11.431Z,31.60
2019-05-30T21:25:39.007Z,31.60
2019-05-30T21:28:06.111Z,31.60
2019-05-30T21:30:33.478Z,31.70
2019-05-30T21:33:00.479Z,31.70
2019-05-30T21:35:27.988Z,31.70
2019-05-30T21:37:55.261Z,31.70
2019-05-30T21:40:22.411Z,31.70
2019-05-30T21:43:03.033Z,31.70
2019-05-30T21:45:18.288Z,31.60
2019-05-30T21:47:46.852Z,31.60
2019-05-30T21:50:14.499Z,31.60
2019-05-30T21:52:43.488Z,31.60
2019-05-30T21:55:11.630Z,31.50
2019-05-30T21:57:39.769Z,31.50
2019-05-30T22:00:12.587Z,31.60
2019-05-30T22:02:44.986Z,31.50
2019-05-30T22:05:12.147Z,31.50
2019-05-30T22:07:40.892Z,31.60
2019-05-30T22:10:07.950Z,31.50
2019-05-30T22:12:35.306Z,31.40
2019-05-30T22:15:02.560Z,31.30
2019-05-30T22:17:30.243Z,31.20
2019-05-30T22:19:57.057Z,31.20
2019-05-30T22:22:23.937Z,31.20
2019-05-30T22:24:50.613Z,31.10
2019-05-30T22:27:17.510Z,31.10
2019-05-30T22:29:44.543Z,31.10
2019-05-30T22:32:11.309Z,31.10
2019-05-30T22:34:38.548Z,31.10
2019-05-30T22:37:07.161Z,31.20
2019-05-30T22:39:33.930Z,31.20
2019-05-30T22:42:00.803Z,31.20
2019-05-30T22:44:28.091Z,31.20
2019-05-30T22:46:56.802Z,31.10
2019-05-30T22:49:24.732Z,31.00
2019-05-30T22:51:51.691Z,30.90
2019-05-30T22:54:19.237Z,30.80
2019-05-30T22:57:01.281Z,30.70
2019-05-30T22:59:28.269Z,30.80
2019-05-30T23:01:55.551Z,30.60
2019-05-30T23:04:22.397Z,30.50
2019-05-30T23:06:50.218Z,30.50
2019-05-30T23:09:17.230Z,30.50
2019-05-30T23:11:45.556Z,30.50
2019-05-30T23:14:12.602Z,30.50
2019-05-30T23:16:40.075Z,30.50
2019-05-30T23:19:07.047Z,30.60
2019-05-30T23:21:33.866Z,30.60
2019-05-30T23:24:00.810Z,30.60
2019-05-30T23:26:27.776Z,30.70
2019-05-30T23:28:55.775Z,30.70
2019-05-30T23:31:23.435Z,30.70
2019-05-30T23:33:50.757Z,30.70
2019-05-30T23:36:17.754Z,30.80
2019-05-30T23:38:48.559Z,30.80
2019-05-30T23:41:15.704Z,30.80
2019-05-30T23:43:55.172Z,30.80
2019-05-30T23:46:11.314Z,30.80
2019-05-30T23:48:39.326Z,30.80
2019-05-30T23:51:06.097Z,30.80
2019-05-30T23:53:32.909Z,30.80
2019-05-30T23:56:00.662Z,30.80
2019-05-30T23:58:27.805Z,30.70
